sensor_id;sensor_type;location;lat;lon;timestamp;P1;durP1;ratioP1;P2;durP2;ratioP2
77105;SDS011;66057;54.718;18.426;2023-05-18T00:00:40;3.80;;;0.95;;
77105;SDS011;66057;54.718;18.426;2023-05-18T00:03:19;6.53;;;1.00;;
77105;SDS011;66057;54.718;18.426;2023-05-18T00:05:45;4.90;;;1.13;;
77105;SDS011;66057;54.718;18.426;2023-05-18T00:08:13;8.98;;;1.15;;
77105;SDS011;66057;54.718;18.426;2023-05-18T00:10:42;2.22;;;0.90;;
77105;SDS011;66057;54.718;18.426;2023-05-18T00:13:08;5.28;;;1.05;;
77105;SDS011;66057;54.718;18.426;2023-05-18T00:15:36;4.00;;;0.93;;
77105;SDS011;66057;54.718;18.426;2023-05-18T00:18:02;3.38;;;0.82;;
77105;SDS011;66057;54.718;18.426;2023-05-18T00:20:28;3.05;;;1.15;;
77105;SDS011;66057;54.718;18.426;2023-05-18T00:22:54;5.00;;;1.20;;
77105;SDS011;66057;54.718;18.426;2023-05-18T00:25:25;2.38;;;1.10;;
77105;SDS011;66057;54.718;18.426;2023-05-18T00:27:51;2.80;;;1.02;;
77105;SDS011;66057;54.718;18.426;2023-05-18T00:30:18;3.63;;;0.77;;
77105;SDS011;66057;54.718;18.426;2023-05-18T00:32:43;4.20;;;0.75;;
77105;SDS011;66057;54.718;18.426;2023-05-18T00:35:10;2.20;;;0.95;;
77105;SDS011;66057;54.718;18.426;2023-05-18T00:37:36;4.78;;;0.68;;
77105;SDS011;66057;54.718;18.426;2023-05-18T00:40:02;5.10;;;1.27;;
77105;SDS011;66057;54.718;18.426;2023-05-18T00:42:30;7.15;;;1.80;;
77105;SDS011;66057;54.718;18.426;2023-05-18T00:44:56;5.72;;;1.58;;
77105;SDS011;66057;54.718;18.426;2023-05-18T00:47:22;8.75;;;1.13;;
77105;SDS011;66057;54.718;18.426;2023-05-18T00:49:48;5.35;;;0.73;;
77105;SDS011;66057;54.718;18.426;2023-05-18T00:52:14;2.22;;;0.82;;
77105;SDS011;66057;54.718;18.426;2023-05-18T00:54:41;3.25;;;0.63;;
77105;SDS011;66057;54.718;18.426;2023-05-18T00:57:07;5.07;;;1.33;;
77105;SDS011;66057;54.718;18.426;2023-05-18T00:59:33;5.90;;;1.00;;
77105;SDS011;66057;54.718;18.426;2023-05-18T01:02:00;9.52;;;1.05;;
77105;SDS011;66057;54.718;18.426;2023-05-18T01:04:26;2.92;;;1.10;;
77105;SDS011;66057;54.718;18.426;2023-05-18T01:06:53;5.68;;;0.95;;
77105;SDS011;66057;54.718;18.426;2023-05-18T01:09:20;5.93;;;1.42;;
77105;SDS011;66057;54.718;18.426;2023-05-18T01:11:55;3.88;;;1.27;;
77105;SDS011;66057;54.718;18.426;2023-05-18T01:14:30;2.88;;;1.20;;
77105;SDS011;66057;54.718;18.426;2023-05-18T01:25:33;2.63;;;0.82;;
77105;SDS011;66057;54.718;18.426;2023-05-18T01:28:23;2.58;;;0.90;;
77105;SDS011;66057;54.718;18.426;2023-05-18T01:30:53;4.82;;;1.00;;
77105;SDS011;66057;54.718;18.426;2023-05-18T01:33:19;4.57;;;1.17;;
77105;SDS011;66057;54.718;18.426;2023-05-18T01:35:45;3.33;;;0.70;;
77105;SDS011;66057;54.718;18.426;2023-05-18T01:38:15;6.82;;;0.80;;
77105;SDS011;66057;54.718;18.426;2023-05-18T01:43:14;5.38;;;0.88;;
77105;SDS011;66057;54.718;18.426;2023-05-18T01:45:45;6.65;;;1.20;;
77105;SDS011;66057;54.718;18.426;2023-05-18T01:48:17;5.25;;;1.00;;
77105;SDS011;66057;54.718;18.426;2023-05-18T01:50:48;8.18;;;1.35;;
77105;SDS011;66057;54.718;18.426;2023-05-18T01:53:27;1.73;;;0.70;;
77105;SDS011;66057;54.718;18.426;2023-05-18T01:56:09;2.58;;;0.82;;
77105;SDS011;66057;54.718;18.426;2023-05-18T01:58:38;7.55;;;0.90;;
77105;SDS011;66057;54.718;18.426;2023-05-18T02:01:05;6.70;;;1.27;;
77105;SDS011;66057;54.718;18.426;2023-05-18T02:03:31;4.97;;;0.95;;
77105;SDS011;66057;54.718;18.426;2023-05-18T02:05:57;3.78;;;1.55;;
77105;SDS011;66057;54.718;18.426;2023-05-18T02:08:23;3.53;;;0.73;;
77105;SDS011;66057;54.718;18.426;2023-05-18T02:10:50;5.13;;;0.82;;
77105;SDS011;66057;54.718;18.426;2023-05-18T02:13:16;1.98;;;0.80;;
77105;SDS011;66057;54.718;18.426;2023-05-18T02:15:42;6.75;;;1.02;;
77105;SDS011;66057;54.718;18.426;2023-05-18T02:18:09;3.40;;;1.02;;
77105;SDS011;66057;54.718;18.426;2023-05-18T02:20:37;4.63;;;1.45;;
77105;SDS011;66057;54.718;18.426;2023-05-18T02:23:04;1.38;;;1.08;;
77105;SDS011;66057;54.718;18.426;2023-05-18T02:25:31;2.03;;;1.02;;
77105;SDS011;66057;54.718;18.426;2023-05-18T02:27:56;6.93;;;1.23;;
77105;SDS011;66057;54.718;18.426;2023-05-18T02:30:22;5.05;;;1.30;;
77105;SDS011;66057;54.718;18.426;2023-05-18T02:32:49;5.70;;;1.20;;
77105;SDS011;66057;54.718;18.426;2023-05-18T02:35:18;3.58;;;0.73;;
77105;SDS011;66057;54.718;18.426;2023-05-18T02:37:44;2.28;;;1.00;;
77105;SDS011;66057;54.718;18.426;2023-05-18T02:40:12;2.67;;;0.98;;
77105;SDS011;66057;54.718;18.426;2023-05-18T02:42:43;3.20;;;0.57;;
77105;SDS011;66057;54.718;18.426;2023-05-18T02:45:10;4.47;;;0.93;;
77105;SDS011;66057;54.718;18.426;2023-05-18T02:47:36;1.85;;;1.05;;
77105;SDS011;66057;54.718;18.426;2023-05-18T02:50:02;3.15;;;0.90;;
77105;SDS011;66057;54.718;18.426;2023-05-18T02:52:28;1.02;;;0.65;;
77105;SDS011;66057;54.718;18.426;2023-05-18T02:54:57;1.92;;;1.00;;
77105;SDS011;66057;54.718;18.426;2023-05-18T02:57:28;3.47;;;1.08;;
77105;SDS011;66057;54.718;18.426;2023-05-18T02:59:58;1.33;;;0.65;;
77105;SDS011;66057;54.718;18.426;2023-05-18T03:02:34;4.53;;;1.05;;
77105;SDS011;66057;54.718;18.426;2023-05-18T03:05:03;1.50;;;0.80;;
77105;SDS011;66057;54.718;18.426;2023-05-18T03:07:43;2.67;;;1.17;;
77105;SDS011;66057;54.718;18.426;2023-05-18T03:10:17;3.13;;;0.90;;
77105;SDS011;66057;54.718;18.426;2023-05-18T03:12:46;2.97;;;1.05;;
77105;SDS011;66057;54.718;18.426;2023-05-18T03:15:13;4.32;;;0.93;;
77105;SDS011;66057;54.718;18.426;2023-05-18T03:17:42;4.63;;;1.50;;
77105;SDS011;66057;54.718;18.426;2023-05-18T03:20:12;5.18;;;1.30;;
77105;SDS011;66057;54.718;18.426;2023-05-18T03:22:46;3.20;;;1.40;;
77105;SDS011;66057;54.718;18.426;2023-05-18T03:25:14;5.63;;;1.08;;
77105;SDS011;66057;54.718;18.426;2023-05-18T03:27:47;2.90;;;1.02;;
77105;SDS011;66057;54.718;18.426;2023-05-18T03:30:15;3.22;;;1.30;;
77105;SDS011;66057;54.718;18.426;2023-05-18T03:32:41;2.03;;;1.10;;
77105;SDS011;66057;54.718;18.426;2023-05-18T03:35:07;3.45;;;1.40;;
77105;SDS011;66057;54.718;18.426;2023-05-18T03:37:33;4.57;;;1.02;;
77105;SDS011;66057;54.718;18.426;2023-05-18T03:40:08;3.15;;;1.63;;
77105;SDS011;66057;54.718;18.426;2023-05-18T03:42:41;4.85;;;1.15;;
77105;SDS011;66057;54.718;18.426;2023-05-18T03:45:08;3.20;;;2.25;;
77105;SDS011;66057;54.718;18.426;2023-05-18T03:47:35;2.78;;;0.90;;
77105;SDS011;66057;54.718;18.426;2023-05-18T03:50:02;1.95;;;0.82;;
77105;SDS011;66057;54.718;18.426;2023-05-18T03:52:29;2.30;;;1.05;;
77105;SDS011;66057;54.718;18.426;2023-05-18T03:54:59;3.13;;;1.20;;
77105;SDS011;66057;54.718;18.426;2023-05-18T03:57:28;4.75;;;1.65;;
77105;SDS011;66057;54.718;18.426;2023-05-18T03:59:55;4.53;;;1.42;;
77105;SDS011;66057;54.718;18.426;2023-05-18T04:02:24;6.47;;;1.50;;
77105;SDS011;66057;54.718;18.426;2023-05-18T04:07:18;6.22;;;1.27;;
77105;SDS011;66057;54.718;18.426;2023-05-18T04:09:52;8.75;;;1.95;;
77105;SDS011;66057;54.718;18.426;2023-05-18T04:12:19;6.00;;;1.85;;
77105;SDS011;66057;54.718;18.426;2023-05-18T04:14:46;3.70;;;1.02;;
77105;SDS011;66057;54.718;18.426;2023-05-18T04:17:16;2.97;;;1.40;;
77105;SDS011;66057;54.718;18.426;2023-05-18T04:19:48;6.82;;;0.85;;
77105;SDS011;66057;54.718;18.426;2023-05-18T04:22:17;4.18;;;1.02;;
77105;SDS011;66057;54.718;18.426;2023-05-18T04:24:43;4.40;;;0.88;;
77105;SDS011;66057;54.718;18.426;2023-05-18T04:27:11;2.88;;;0.82;;
77105;SDS011;66057;54.718;18.426;2023-05-18T04:29:40;2.22;;;0.82;;
77105;SDS011;66057;54.718;18.426;2023-05-18T04:32:08;3.33;;;1.10;;
77105;SDS011;66057;54.718;18.426;2023-05-18T04:34:38;1.58;;;0.63;;
77105;SDS011;66057;54.718;18.426;2023-05-18T04:37:03;2.70;;;0.85;;
77105;SDS011;66057;54.718;18.426;2023-05-18T04:39:35;8.25;;;1.35;;
77105;SDS011;66057;54.718;18.426;2023-05-18T04:42:03;3.55;;;1.58;;
77105;SDS011;66057;54.718;18.426;2023-05-18T04:44:32;3.05;;;1.20;;
77105;SDS011;66057;54.718;18.426;2023-05-18T04:46:58;5.68;;;1.75;;
77105;SDS011;66057;54.718;18.426;2023-05-18T04:49:28;6.38;;;1.50;;
77105;SDS011;66057;54.718;18.426;2023-05-18T04:51:56;5.22;;;1.17;;
77105;SDS011;66057;54.718;18.426;2023-05-18T04:54:28;3.53;;;1.00;;
77105;SDS011;66057;54.718;18.426;2023-05-18T04:56:57;5.20;;;1.00;;
77105;SDS011;66057;54.718;18.426;2023-05-18T04:59:24;3.13;;;1.08;;
77105;SDS011;66057;54.718;18.426;2023-05-18T05:01:56;4.18;;;0.77;;
77105;SDS011;66057;54.718;18.426;2023-05-18T05:04:27;1.88;;;0.65;;
77105;SDS011;66057;54.718;18.426;2023-05-18T05:06:54;4.43;;;0.75;;
77105;SDS011;66057;54.718;18.426;2023-05-18T05:09:23;2.97;;;1.13;;
77105;SDS011;66057;54.718;18.426;2023-05-18T05:11:52;5.22;;;0.80;;
77105;SDS011;66057;54.718;18.426;2023-05-18T05:14:20;4.93;;;0.63;;
77105;SDS011;66057;54.718;18.426;2023-05-18T05:16:45;3.67;;;0.90;;
77105;SDS011;66057;54.718;18.426;2023-05-18T05:19:12;5.18;;;1.25;;
77105;SDS011;66057;54.718;18.426;2023-05-18T05:21:37;1.80;;;1.02;;
77105;SDS011;66057;54.718;18.426;2023-05-18T05:24:04;6.63;;;1.25;;
77105;SDS011;66057;54.718;18.426;2023-05-18T05:26:34;6.05;;;1.17;;
77105;SDS011;66057;54.718;18.426;2023-05-18T05:29:00;3.88;;;1.05;;
77105;SDS011;66057;54.718;18.426;2023-05-18T05:31:26;2.00;;;0.95;;
77105;SDS011;66057;54.718;18.426;2023-05-18T05:33:52;2.42;;;0.70;;
77105;SDS011;66057;54.718;18.426;2023-05-18T05:36:24;2.83;;;0.73;;
77105;SDS011;66057;54.718;18.426;2023-05-18T05:38:50;3.83;;;0.60;;
77105;SDS011;66057;54.718;18.426;2023-05-18T05:41:19;2.08;;;0.60;;
77105;SDS011;66057;54.718;18.426;2023-05-18T05:43:47;3.78;;;1.27;;
77105;SDS011;66057;54.718;18.426;2023-05-18T05:46:15;3.42;;;0.63;;
77105;SDS011;66057;54.718;18.426;2023-05-18T05:48:42;2.05;;;0.90;;
77105;SDS011;66057;54.718;18.426;2023-05-18T05:51:07;5.15;;;0.68;;
77105;SDS011;66057;54.718;18.426;2023-05-18T05:53:33;2.83;;;0.40;;
77105;SDS011;66057;54.718;18.426;2023-05-18T05:55:59;1.50;;;0.30;;
77105;SDS011;66057;54.718;18.426;2023-05-18T05:58:32;3.22;;;0.73;;
77105;SDS011;66057;54.718;18.426;2023-05-18T06:01:01;1.15;;;0.28;;
77105;SDS011;66057;54.718;18.426;2023-05-18T06:03:27;2.47;;;0.35;;
77105;SDS011;66057;54.718;18.426;2023-05-18T06:05:53;2.20;;;0.25;;
77105;SDS011;66057;54.718;18.426;2023-05-18T06:08:20;1.25;;;0.57;;
77105;SDS011;66057;54.718;18.426;2023-05-18T06:10:48;2.00;;;0.30;;
77105;SDS011;66057;54.718;18.426;2023-05-18T06:13:14;3.53;;;0.52;;
77105;SDS011;66057;54.718;18.426;2023-05-18T06:15:40;1.60;;;0.20;;
77105;SDS011;66057;54.718;18.426;2023-05-18T06:18:06;2.47;;;0.47;;
77105;SDS011;66057;54.718;18.426;2023-05-18T06:20:32;0.50;;;0.30;;
77105;SDS011;66057;54.718;18.426;2023-05-18T06:22:58;3.83;;;1.02;;
77105;SDS011;66057;54.718;18.426;2023-05-18T06:25:25;3.33;;;0.32;;
77105;SDS011;66057;54.718;18.426;2023-05-18T06:27:51;0.93;;;0.20;;
77105;SDS011;66057;54.718;18.426;2023-05-18T06:30:17;2.15;;;0.15;;
77105;SDS011;66057;54.718;18.426;2023-05-18T06:32:43;0.95;;;0.40;;
77105;SDS011;66057;54.718;18.426;2023-05-18T06:35:09;2.08;;;0.22;;
77105;SDS011;66057;54.718;18.426;2023-05-18T06:37:35;3.80;;;0.57;;
77105;SDS011;66057;54.718;18.426;2023-05-18T06:40:01;2.85;;;0.30;;
77105;SDS011;66057;54.718;18.426;2023-05-18T06:42:38;1.98;;;0.45;;
77105;SDS011;66057;54.718;18.426;2023-05-18T06:45:20;3.50;;;0.30;;
77105;SDS011;66057;54.718;18.426;2023-05-18T06:47:46;3.63;;;0.22;;
77105;SDS011;66057;54.718;18.426;2023-05-18T06:50:12;3.92;;;0.30;;
77105;SDS011;66057;54.718;18.426;2023-05-18T06:52:38;1.05;;;0.30;;
77105;SDS011;66057;54.718;18.426;2023-05-18T06:55:10;2.53;;;0.30;;
77105;SDS011;66057;54.718;18.426;2023-05-18T06:57:36;1.52;;;0.30;;
77105;SDS011;66057;54.718;18.426;2023-05-18T07:00:04;2.42;;;0.50;;
77105;SDS011;66057;54.718;18.426;2023-05-18T07:02:32;2.15;;;0.38;;
77105;SDS011;66057;54.718;18.426;2023-05-18T07:04:58;2.97;;;0.20;;
77105;SDS011;66057;54.718;18.426;2023-05-18T07:07:25;1.00;;;0.30;;
77105;SDS011;66057;54.718;18.426;2023-05-18T07:09:51;1.73;;;0.40;;
77105;SDS011;66057;54.718;18.426;2023-05-18T07:12:19;1.85;;;0.40;;
77105;SDS011;66057;54.718;18.426;2023-05-18T07:14:54;1.83;;;0.15;;
77105;SDS011;66057;54.718;18.426;2023-05-18T07:17:20;0.60;;;0.10;;
77105;SDS011;66057;54.718;18.426;2023-05-18T07:19:49;0.93;;;0.20;;
77105;SDS011;66057;54.718;18.426;2023-05-18T07:22:14;1.23;;;0.10;;
77105;SDS011;66057;54.718;18.426;2023-05-18T07:24:40;0.22;;;0.10;;
77105;SDS011;66057;54.718;18.426;2023-05-18T07:27:09;2.47;;;0.20;;
77105;SDS011;66057;54.718;18.426;2023-05-18T07:29:35;1.15;;;0.10;;
77105;SDS011;66057;54.718;18.426;2023-05-18T07:32:11;0.47;;;0.20;;
77105;SDS011;66057;54.718;18.426;2023-05-18T07:34:37;2.55;;;0.25;;
77105;SDS011;66057;54.718;18.426;2023-05-18T07:37:08;1.52;;;0.10;;
77105;SDS011;66057;54.718;18.426;2023-05-18T07:39:34;2.35;;;0.10;;
77105;SDS011;66057;54.718;18.426;2023-05-18T07:42:00;0.10;;;0.10;;
77105;SDS011;66057;54.718;18.426;2023-05-18T07:44:26;4.55;;;0.20;;
77105;SDS011;66057;54.718;18.426;2023-05-18T07:46:52;0.85;;;0.13;;
77105;SDS011;66057;54.718;18.426;2023-05-18T07:49:21;0.30;;;0.10;;
77105;SDS011;66057;54.718;18.426;2023-05-18T07:51:50;3.22;;;0.13;;
77105;SDS011;66057;54.718;18.426;2023-05-18T07:54:18;0.30;;;0.10;;
77105;SDS011;66057;54.718;18.426;2023-05-18T07:56:50;0.20;;;0.10;;
77105;SDS011;66057;54.718;18.426;2023-05-18T07:59:16;1.60;;;0.10;;
77105;SDS011;66057;54.718;18.426;2023-05-18T08:01:42;1.75;;;0.10;;
77105;SDS011;66057;54.718;18.426;2023-05-18T08:04:08;3.20;;;0.20;;
77105;SDS011;66057;54.718;18.426;2023-05-18T08:06:34;0.50;;;0.00;;
77105;SDS011;66057;54.718;18.426;2023-05-18T08:09:00;1.77;;;0.00;;
77105;SDS011;66057;54.718;18.426;2023-05-18T08:11:26;1.17;;;0.13;;
77105;SDS011;66057;54.718;18.426;2023-05-18T08:13:52;0.88;;;0.10;;
77105;SDS011;66057;54.718;18.426;2023-05-18T08:16:18;0.10;;;0.05;;
77105;SDS011;66057;54.718;18.426;2023-05-18T08:18:44;1.02;;;0.43;;
77105;SDS011;66057;54.718;18.426;2023-05-18T08:21:10;2.28;;;0.20;;
77105;SDS011;66057;54.718;18.426;2023-05-18T08:23:36;0.77;;;0.10;;
77105;SDS011;66057;54.718;18.426;2023-05-18T08:26:03;1.05;;;0.10;;
77105;SDS011;66057;54.718;18.426;2023-05-18T08:28:29;0.10;;;0.00;;
77105;SDS011;66057;54.718;18.426;2023-05-18T08:30:56;1.42;;;0.15;;
77105;SDS011;66057;54.718;18.426;2023-05-18T08:33:22;0.85;;;0.10;;
77105;SDS011;66057;54.718;18.426;2023-05-18T08:35:48;0.65;;;0.10;;
77105;SDS011;66057;54.718;18.426;2023-05-18T08:38:14;1.15;;;0.20;;
77105;SDS011;66057;54.718;18.426;2023-05-18T08:40:46;1.20;;;0.10;;
77105;SDS011;66057;54.718;18.426;2023-05-18T08:43:28;0.80;;;0.10;;
77105;SDS011;66057;54.718;18.426;2023-05-18T08:46:01;1.70;;;0.00;;
77105;SDS011;66057;54.718;18.426;2023-05-18T08:48:37;0.35;;;0.00;;
77105;SDS011;66057;54.718;18.426;2023-05-18T08:51:06;2.30;;;0.20;;
77105;SDS011;66057;54.718;18.426;2023-05-18T08:53:34;2.55;;;0.30;;
77105;SDS011;66057;54.718;18.426;2023-05-18T08:56:03;3.25;;;0.25;;
77105;SDS011;66057;54.718;18.426;2023-05-18T08:58:37;2.17;;;0.10;;
77105;SDS011;66057;54.718;18.426;2023-05-18T09:01:13;0.55;;;0.10;;
77105;SDS011;66057;54.718;18.426;2023-05-18T09:03:39;0.30;;;0.10;;
77105;SDS011;66057;54.718;18.426;2023-05-18T09:06:06;0.80;;;0.05;;
77105;SDS011;66057;54.718;18.426;2023-05-18T09:08:32;0.57;;;0.13;;
77105;SDS011;66057;54.718;18.426;2023-05-18T09:11:00;1.15;;;0.13;;
77105;SDS011;66057;54.718;18.426;2023-05-18T09:13:28;1.73;;;0.20;;
77105;SDS011;66057;54.718;18.426;2023-05-18T09:15:54;1.25;;;0.40;;
77105;SDS011;66057;54.718;18.426;2023-05-18T09:18:23;0.60;;;0.20;;
77105;SDS011;66057;54.718;18.426;2023-05-18T09:20:52;1.20;;;0.25;;
77105;SDS011;66057;54.718;18.426;2023-05-18T09:23:26;2.78;;;0.35;;
77105;SDS011;66057;54.718;18.426;2023-05-18T09:25:52;1.15;;;0.10;;
77105;SDS011;66057;54.718;18.426;2023-05-18T09:28:32;0.85;;;0.10;;
77105;SDS011;66057;54.718;18.426;2023-05-18T09:31:08;0.40;;;0.00;;
77105;SDS011;66057;54.718;18.426;2023-05-18T09:33:37;1.55;;;0.32;;
77105;SDS011;66057;54.718;18.426;2023-05-18T09:36:04;3.45;;;0.30;;
77105;SDS011;66057;54.718;18.426;2023-05-18T09:38:38;0.30;;;0.10;;
77105;SDS011;66057;54.718;18.426;2023-05-18T09:41:10;2.60;;;0.20;;
77105;SDS011;66057;54.718;18.426;2023-05-18T09:43:37;0.47;;;0.17;;
77105;SDS011;66057;54.718;18.426;2023-05-18T09:46:05;3.50;;;0.30;;
77105;SDS011;66057;54.718;18.426;2023-05-18T09:48:33;1.13;;;0.08;;
77105;SDS011;66057;54.718;18.426;2023-05-18T09:51:06;0.73;;;0.10;;
77105;SDS011;66057;54.718;18.426;2023-05-18T09:53:34;0.52;;;0.10;;
77105;SDS011;66057;54.718;18.426;2023-05-18T09:56:05;1.73;;;0.20;;
77105;SDS011;66057;54.718;18.426;2023-05-18T09:58:36;0.85;;;0.20;;
77105;SDS011;66057;54.718;18.426;2023-05-18T10:01:04;2.58;;;0.20;;
77105;SDS011;66057;54.718;18.426;2023-05-18T10:03:33;0.35;;;0.00;;
77105;SDS011;66057;54.718;18.426;2023-05-18T10:06:03;0.98;;;0.20;;
77105;SDS011;66057;54.718;18.426;2023-05-18T10:08:32;0.55;;;0.20;;
77105;SDS011;66057;54.718;18.426;2023-05-18T10:10:59;0.60;;;0.10;;
77105;SDS011;66057;54.718;18.426;2023-05-18T10:13:27;2.58;;;0.20;;
77105;SDS011;66057;54.718;18.426;2023-05-18T10:15:59;0.28;;;0.10;;
77105;SDS011;66057;54.718;18.426;2023-05-18T10:18:29;0.05;;;0.00;;
77105;SDS011;66057;54.718;18.426;2023-05-18T10:20:57;1.73;;;0.40;;
77105;SDS011;66057;54.718;18.426;2023-05-18T10:23:33;0.90;;;0.10;;
77105;SDS011;66057;54.718;18.426;2023-05-18T10:26:03;3.03;;;0.93;;
77105;SDS011;66057;54.718;18.426;2023-05-18T10:28:31;0.40;;;0.10;;
77105;SDS011;66057;54.718;18.426;2023-05-18T10:31:02;1.02;;;0.10;;
77105;SDS011;66057;54.718;18.426;2023-05-18T10:33:36;1.02;;;0.25;;
77105;SDS011;66057;54.718;18.426;2023-05-18T10:36:03;2.58;;;0.15;;
77105;SDS011;66057;54.718;18.426;2023-05-18T10:38:30;1.45;;;0.40;;
77105;SDS011;66057;54.718;18.426;2023-05-18T10:40:59;0.40;;;0.15;;
77105;SDS011;66057;54.718;18.426;2023-05-18T10:43:26;2.50;;;0.20;;
77105;SDS011;66057;54.718;18.426;2023-05-18T10:45:56;0.63;;;0.08;;
77105;SDS011;66057;54.718;18.426;2023-05-18T10:48:26;0.60;;;0.10;;
77105;SDS011;66057;54.718;18.426;2023-05-18T10:50:57;1.00;;;0.10;;
77105;SDS011;66057;54.718;18.426;2023-05-18T10:53:49;2.97;;;0.20;;
77105;SDS011;66057;54.718;18.426;2023-05-18T10:56:15;0.73;;;0.17;;
77105;SDS011;66057;54.718;18.426;2023-05-18T10:58:41;1.05;;;0.20;;
77105;SDS011;66057;54.718;18.426;2023-05-18T11:03:35;1.67;;;0.13;;
77105;SDS011;66057;54.718;18.426;2023-05-18T11:06:04;1.83;;;0.35;;
77105;SDS011;66057;54.718;18.426;2023-05-18T11:08:32;1.02;;;0.10;;
77105;SDS011;66057;54.718;18.426;2023-05-18T11:11:03;2.33;;;0.15;;
77105;SDS011;66057;54.718;18.426;2023-05-18T11:13:31;0.45;;;0.10;;
77105;SDS011;66057;54.718;18.426;2023-05-18T11:21:01;0.98;;;0.10;;
77105;SDS011;66057;54.718;18.426;2023-05-18T11:23:33;1.13;;;0.38;;
77105;SDS011;66057;54.718;18.426;2023-05-18T11:25:59;2.15;;;0.30;;
77105;SDS011;66057;54.718;18.426;2023-05-18T11:28:29;0.77;;;0.10;;
77105;SDS011;66057;54.718;18.426;2023-05-18T11:30:56;0.50;;;0.10;;
77105;SDS011;66057;54.718;18.426;2023-05-18T11:36:00;0.30;;;0.00;;
77105;SDS011;66057;54.718;18.426;2023-05-18T11:38:47;0.75;;;0.20;;
77105;SDS011;66057;54.718;18.426;2023-05-18T11:41:38;2.35;;;0.10;;
77105;SDS011;66057;54.718;18.426;2023-05-18T11:52:15;1.45;;;0.20;;
77105;SDS011;66057;54.718;18.426;2023-05-18T11:57:38;0.70;;;0.08;;
77105;SDS011;66057;54.718;18.426;2023-05-18T12:00:07;1.55;;;0.57;;
77105;SDS011;66057;54.718;18.426;2023-05-18T12:02:44;1.58;;;0.10;;
77105;SDS011;66057;54.718;18.426;2023-05-18T12:05:11;0.80;;;0.30;;
77105;SDS011;66057;54.718;18.426;2023-05-18T12:07:38;1.90;;;1.25;;
77105;SDS011;66057;54.718;18.426;2023-05-18T12:10:11;1.75;;;0.50;;
77105;SDS011;66057;54.718;18.426;2023-05-18T12:12:41;2.75;;;0.77;;
77105;SDS011;66057;54.718;18.426;2023-05-18T12:17:38;1.25;;;0.10;;
77105;SDS011;66057;54.718;18.426;2023-05-18T12:20:13;0.25;;;0.10;;
77105;SDS011;66057;54.718;18.426;2023-05-18T12:23:14;0.85;;;0.15;;
77105;SDS011;66057;54.718;18.426;2023-05-18T12:25:40;1.27;;;0.20;;
77105;SDS011;66057;54.718;18.426;2023-05-18T12:28:07;0.40;;;0.20;;
77105;SDS011;66057;54.718;18.426;2023-05-18T12:30:32;1.05;;;0.40;;
77105;SDS011;66057;54.718;18.426;2023-05-18T12:33:04;0.55;;;0.10;;
77105;SDS011;66057;54.718;18.426;2023-05-18T12:35:31;0.35;;;0.10;;
77105;SDS011;66057;54.718;18.426;2023-05-18T12:38:00;1.17;;;0.20;;
77105;SDS011;66057;54.718;18.426;2023-05-18T12:40:35;1.98;;;0.25;;
77105;SDS011;66057;54.718;18.426;2023-05-18T12:43:08;0.55;;;0.20;;
77105;SDS011;66057;54.718;18.426;2023-05-18T12:45:37;3.10;;;0.40;;
77105;SDS011;66057;54.718;18.426;2023-05-18T12:48:09;2.10;;;0.40;;
77105;SDS011;66057;54.718;18.426;2023-05-18T12:54:05;2.22;;;1.05;;
77105;SDS011;66057;54.718;18.426;2023-05-18T12:56:50;0.52;;;0.35;;
77105;SDS011;66057;54.718;18.426;2023-05-18T12:59:26;0.98;;;0.17;;
77105;SDS011;66057;54.718;18.426;2023-05-18T13:01:53;1.65;;;0.25;;
77105;SDS011;66057;54.718;18.426;2023-05-18T13:04:19;2.63;;;0.10;;
77105;SDS011;66057;54.718;18.426;2023-05-18T13:06:46;0.20;;;0.00;;
77105;SDS011;66057;54.718;18.426;2023-05-18T13:09:13;1.52;;;0.10;;
77105;SDS011;66057;54.718;18.426;2023-05-18T13:11:51;1.67;;;0.20;;
77105;SDS011;66057;54.718;18.426;2023-05-18T13:14:20;1.35;;;0.10;;
77105;SDS011;66057;54.718;18.426;2023-05-18T13:16:49;2.60;;;0.40;;
77105;SDS011;66057;54.718;18.426;2023-05-18T13:19:19;0.35;;;0.10;;
77105;SDS011;66057;54.718;18.426;2023-05-18T13:21:45;1.58;;;0.10;;
77105;SDS011;66057;54.718;18.426;2023-05-18T13:24:19;0.15;;;0.00;;
77105;SDS011;66057;54.718;18.426;2023-05-18T13:26:45;0.40;;;0.03;;
77105;SDS011;66057;54.718;18.426;2023-05-18T13:29:11;0.47;;;0.20;;
77105;SDS011;66057;54.718;18.426;2023-05-18T13:31:37;0.60;;;0.00;;
77105;SDS011;66057;54.718;18.426;2023-05-18T13:34:03;1.65;;;0.17;;
77105;SDS011;66057;54.718;18.426;2023-05-18T13:36:29;1.17;;;0.10;;
77105;SDS011;66057;54.718;18.426;2023-05-18T13:38:58;0.35;;;0.10;;
77105;SDS011;66057;54.718;18.426;2023-05-18T13:41:30;1.38;;;0.10;;
77105;SDS011;66057;54.718;18.426;2023-05-18T13:43:55;1.45;;;0.30;;
77105;SDS011;66057;54.718;18.426;2023-05-18T13:46:22;0.47;;;0.20;;
77105;SDS011;66057;54.718;18.426;2023-05-18T13:48:51;7.78;;;2.38;;
77105;SDS011;66057;54.718;18.426;2023-05-18T13:51:16;7.20;;;1.80;;
77105;SDS011;66057;54.718;18.426;2023-05-18T13:53:42;5.50;;;1.23;;
77105;SDS011;66057;54.718;18.426;2023-05-18T13:56:08;1.58;;;0.45;;
77105;SDS011;66057;54.718;18.426;2023-05-18T13:58:34;4.38;;;1.42;;
77105;SDS011;66057;54.718;18.426;2023-05-18T14:03:28;2.95;;;0.75;;
77105;SDS011;66057;54.718;18.426;2023-05-18T14:05:58;5.60;;;1.63;;
77105;SDS011;66057;54.718;18.426;2023-05-18T14:08:24;1.92;;;0.30;;
77105;SDS011;66057;54.718;18.426;2023-05-18T14:10:50;3.80;;;0.85;;
77105;SDS011;66057;54.718;18.426;2023-05-18T14:13:15;7.80;;;2.25;;
77105;SDS011;66057;54.718;18.426;2023-05-18T14:15:41;13.15;;;5.07;;
77105;SDS011;66057;54.718;18.426;2023-05-18T14:18:07;2.25;;;1.08;;
77105;SDS011;66057;54.718;18.426;2023-05-18T14:20:33;3.58;;;1.00;;
77105;SDS011;66057;54.718;18.426;2023-05-18T14:23:06;4.15;;;1.58;;
77105;SDS011;66057;54.718;18.426;2023-05-18T14:25:32;3.20;;;1.33;;
77105;SDS011;66057;54.718;18.426;2023-05-18T14:27:58;2.22;;;0.70;;
77105;SDS011;66057;54.718;18.426;2023-05-18T14:30:24;2.13;;;0.45;;
77105;SDS011;66057;54.718;18.426;2023-05-18T14:32:49;2.85;;;0.98;;
77105;SDS011;66057;54.718;18.426;2023-05-18T14:35:16;3.40;;;0.40;;
77105;SDS011;66057;54.718;18.426;2023-05-18T14:37:41;4.10;;;0.63;;
77105;SDS011;66057;54.718;18.426;2023-05-18T14:40:07;3.85;;;0.43;;
77105;SDS011;66057;54.718;18.426;2023-05-18T14:42:33;2.25;;;0.57;;
77105;SDS011;66057;54.718;18.426;2023-05-18T14:45:00;3.15;;;0.60;;
77105;SDS011;66057;54.718;18.426;2023-05-18T14:47:26;6.18;;;1.60;;
77105;SDS011;66057;54.718;18.426;2023-05-18T14:49:52;1.77;;;0.40;;
77105;SDS011;66057;54.718;18.426;2023-05-18T14:52:20;0.93;;;0.40;;
77105;SDS011;66057;54.718;18.426;2023-05-18T14:57:12;3.17;;;0.77;;
77105;SDS011;66057;54.718;18.426;2023-05-18T14:59:38;4.05;;;0.40;;
77105;SDS011;66057;54.718;18.426;2023-05-18T15:02:03;3.95;;;0.55;;
77105;SDS011;66057;54.718;18.426;2023-05-18T15:04:30;2.60;;;0.50;;
77105;SDS011;66057;54.718;18.426;2023-05-18T15:06:55;2.50;;;0.30;;
77105;SDS011;66057;54.718;18.426;2023-05-18T15:09:27;1.75;;;0.30;;
77105;SDS011;66057;54.718;18.426;2023-05-18T15:11:53;1.88;;;0.30;;
77105;SDS011;66057;54.718;18.426;2023-05-18T15:14:20;1.55;;;0.50;;
77105;SDS011;66057;54.718;18.426;2023-05-18T15:16:46;1.40;;;0.28;;
77105;SDS011;66057;54.718;18.426;2023-05-18T15:19:12;1.23;;;0.30;;
77105;SDS011;66057;54.718;18.426;2023-05-18T15:21:38;4.53;;;0.22;;
77105;SDS011;66057;54.718;18.426;2023-05-18T15:24:04;0.73;;;0.15;;
77105;SDS011;66057;54.718;18.426;2023-05-18T15:26:33;1.73;;;0.10;;